Time;durP1;ratioP1;P1;durP2;ratioP2;P2;SDS_P1;SDS_P2;PMS_P1;PMS_P2;Temp;Humidity;BMP_temperature;BMP_pressure;BME280_temperature;BME280_humidity;BME280_pressure;Samples;Min_cycle;Max_cycle;Signal;HPM_P1;HPM_P2
2021/05/20 00:02:12;;;;;;;7.95;4.57;;;4.70;99.90;;;;;;4992451;28;20199;-72
2021/05/20 00:04:38;;;;;;;7.57;4.72;;;4.70;99.90;;;;;;4994471;28;20200;-72
2021/05/20 00:07:04;;;;;;;9.55;4.13;;;4.70;99.90;;;;;;4992301;28;20775;-72
2021/05/20 00:09:30;;;;;;;8.98;4.35;;;4.70;99.90;;;;;;4992155;28;20225;-72
2021/05/20 00:11:56;;;;;;;10.52;4.35;;;4.60;99.90;;;;;;4994714;28;20199;-72
2021/05/20 00:14:22;;;;;;;9.18;4.53;;;4.60;99.90;;;;;;4995306;28;20735;-72
2021/05/20 00:16:48;;;;;;;7.15;4.07;;;4.50;99.90;;;;;;4998301;28;20210;-72
2021/05/20 00:19:14;;;;;;;12.80;4.50;;;4.50;99.90;;;;;;4996585;28;20195;-72
2021/05/20 00:21:40;;;;;;;6.45;4.03;;;4.50;99.90;;;;;;4997119;28;20594;-72
2021/05/20 00:24:06;;;;;;;10.80;4.25;;;4.50;99.90;;;;;;4997977;28;20748;-72
2021/05/20 00:26:32;;;;;;;7.85;4.10;;;4.40;99.90;;;;;;4993039;28;20330;-72
2021/05/20 00:28:59;;;;;;;8.85;4.22;;;4.40;99.90;;;;;;4997280;28;20205;-71
2021/05/20 00:31:25;;;;;;;10.70;5.18;;;4.40;99.90;;;;;;4994286;28;20241;-72
2021/05/20 00:33:51;;;;;;;10.02;4.28;;;4.50;99.90;;;;;;4991213;28;20537;-72
2021/05/20 00:36:16;;;;;;;8.35;4.45;;;4.60;99.90;;;;;;4991819;28;20636;-72
2021/05/20 00:38:42;;;;;;;7.00;3.80;;;4.50;99.90;;;;;;4991533;28;20631;-72
2021/05/20 00:41:08;;;;;;;9.13;4.10;;;4.40;99.90;;;;;;4993406;28;20202;-72
2021/05/20 00:43:34;;;;;;;15.95;4.35;;;4.40;99.90;;;;;;4992864;28;20192;-72
2021/05/20 00:46:00;;;;;;;7.30;3.67;;;4.30;99.90;;;;;;4992726;28;20202;-72
2021/05/20 00:48:26;;;;;;;9.65;4.38;;;4.20;99.90;;;;;;4993450;28;20210;-72
2021/05/20 00:50:51;;;;;;;6.47;4.22;;;4.20;99.90;;;;;;4998740;28;20569;-73
2021/05/20 00:53:17;;;;;;;10.15;4.57;;;4.30;99.90;;;;;;4996258;28;20241;-72
2021/05/20 00:55:43;;;;;;;5.93;3.63;;;4.30;99.90;;;;;;4993051;28;20257;-72
2021/05/20 00:58:09;;;;;;;9.32;4.28;;;4.30;99.90;;;;;;4992464;28;20195;-73
2021/05/20 01:00:36;;;;;;;6.13;4.03;;;4.30;99.90;;;;;;4997843;28;20222;-71
2021/05/20 01:03:03;;;;;;;12.23;4.47;;;4.30;99.90;;;;;;4993346;28;20195;-71
2021/05/20 01:05:29;;;;;;;8.93;4.22;;;4.30;99.90;;;;;;5018968;22;20241;-70
2021/05/20 01:07:55;;;;;;;12.05;4.30;;;4.30;99.90;;;;;;4993905;28;20198;-71
2021/05/20 01:10:22;;;;;;;12.13;4.95;;;4.30;99.90;;;;;;5010991;28;20221;-71
2021/05/20 01:12:48;;;;;;;8.95;3.80;;;4.40;99.90;;;;;;5010494;28;20227;-71
2021/05/20 01:15:32;;;;;;;10.18;4.65;;;4.40;99.90;;;;;;5009931;28;20210;-72
2021/05/20 01:18:03;;;;;;;7.88;3.92;;;4.40;99.90;;;;;;5012083;28;20193;-71
2021/05/20 01:20:40;;;;;;;8.15;4.10;;;4.40;99.90;;;;;;5011584;28;20201;-71
2021/05/20 01:23:07;;;;;;;7.95;4.38;;;4.40;99.90;;;;;;5010807;28;20567;-71
2021/05/20 01:25:33;;;;;;;6.90;3.63;;;4.40;99.90;;;;;;4994938;28;20704;-71
2021/05/20 01:28:03;;;;;;;8.07;4.05;;;4.40;99.90;;;;;;5007904;28;20285;-70
2021/05/20 01:30:34;;;;;;;11.15;3.78;;;4.40;99.90;;;;;;5004360;28;20210;-70
2021/05/20 01:32:59;;;;;;;44.97;5.15;;;4.30;99.90;;;;;;5008337;28;20873;-70
2021/05/20 01:35:25;;;;;;;6.20;3.95;;;4.30;99.90;;;;;;5007686;28;20203;-71
2021/05/20 01:38:04;;;;;;;17.27;4.20;;;4.20;99.90;;;;;;5008518;28;20369;-71
2021/05/20 01:40:30;;;;;;;6.13;3.72;;;4.20;99.90;;;;;;5008521;28;20547;-70
2021/05/20 01:42:55;;;;;;;7.03;3.65;;;4.20;99.90;;;;;;5007739;28;20205;-71
2021/05/20 01:45:21;;;;;;;9.15;3.70;;;4.20;99.90;;;;;;4992674;28;20190;-70
2021/05/20 01:47:47;;;;;;;7.18;3.47;;;4.10;99.90;;;;;;4990088;28;20198;-72
2021/05/20 01:50:12;;;;;;;13.43;4.22;;;4.10;99.90;;;;;;5009954;28;20269;-70
2021/05/20 01:52:38;;;;;;;8.05;3.78;;;4.00;99.90;;;;;;5008447;28;20213;-71
2021/05/20 01:55:04;;;;;;;48.05;5.60;;;4.00;99.90;;;;;;5011514;28;20217;-72
2021/05/20 01:57:30;;;;;;;15.65;4.57;;;4.00;99.90;;;;;;5009464;28;20798;-73
2021/05/20 01:59:55;;;;;;;142.15;9.18;;;3.90;99.90;;;;;;5012213;28;20199;-70
2021/05/20 02:02:21;;;;;;;8.75;4.03;;;3.80;99.90;;;;;;5009110;28;20210;-71
2021/05/20 02:04:47;;;;;;;11.30;3.80;;;3.80;99.90;;;;;;5012678;28;20222;-71
2021/05/20 02:07:12;;;;;;;10.80;4.00;;;3.80;99.90;;;;;;4995296;28;20238;-70
2021/05/20 02:09:38;;;;;;;7.72;4.40;;;3.90;99.90;;;;;;4996015;28;20229;-73
2021/05/20 02:12:04;;;;;;;13.07;4.10;;;3.90;99.90;;;;;;5016118;28;20673;-71
2021/05/20 02:14:30;;;;;;;6.95;4.00;;;3.90;99.90;;;;;;4997046;28;20304;-70
2021/05/20 02:16:55;;;;;;;11.02;4.10;;;3.80;99.90;;;;;;5002719;28;20356;-71
2021/05/20 02:19:21;;;;;;;8.27;3.95;;;3.80;99.90;;;;;;4997667;28;20276;-72
2021/05/20 02:21:47;;;;;;;7.75;4.05;;;3.80;99.90;;;;;;4998063;28;20209;-71
2021/05/20 02:24:12;;;;;;;6.97;4.10;;;3.80;99.90;;;;;;5013903;28;20443;-71
2021/05/20 02:26:38;;;;;;;7.75;4.20;;;3.80;99.90;;;;;;5012698;28;20199;-71
2021/05/20 02:29:04;;;;;;;10.48;4.60;;;3.80;99.90;;;;;;5014942;28;20695;-71
2021/05/20 02:31:29;;;;;;;9.48;3.97;;;3.90;99.90;;;;;;5015021;28;20194;-70
2021/05/20 02:33:58;;;;;;;16.85;4.90;;;3.90;99.90;;;;;;4995915;28;20237;-70
2021/05/20 02:36:23;;;;;;;14.02;4.25;;;3.80;99.90;;;;;;5011875;28;20252;-71
2021/05/20 02:38:49;;;;;;;8.32;3.70;;;3.80;99.90;;;;;;4998721;28;20293;-70
2021/05/20 02:41:15;;;;;;;13.43;4.10;;;3.80;99.90;;;;;;5018662;28;20194;-70
2021/05/20 02:43:40;;;;;;;7.20;4.13;;;3.90;99.90;;;;;;5022825;28;20677;-71
2021/05/20 02:46:06;;;;;;;8.55;3.85;;;3.80;99.90;;;;;;5019793;28;20683;-71
2021/05/20 02:48:32;;;;;;;10.95;4.10;;;3.80;99.90;;;;;;5004228;28;20206;-71
2021/05/20 02:50:57;;;;;;;9.20;4.15;;;3.80;99.90;;;;;;5019222;28;20351;-70
2021/05/20 02:53:23;;;;;;;6.80;4.95;;;3.80;99.90;;;;;;5018912;28;20217;-71
2021/05/20 02:55:49;;;;;;;15.30;4.35;;;3.80;99.90;;;;;;5018801;28;20580;-70
2021/05/20 02:58:17;;;;;;;15.82;3.88;;;3.80;99.90;;;;;;5001361;28;20324;-71
2021/05/20 03:00:46;;;;;;;8.70;3.88;;;3.80;99.90;;;;;;5024074;28;20190;-70
2021/05/20 03:03:12;;;;;;;7.65;4.05;;;3.80;99.90;;;;;;5019091;28;20348;-71
2021/05/20 03:05:38;;;;;;;9.55;3.60;;;3.90;99.90;;;;;;5018789;28;20229;-70
2021/05/20 03:08:03;;;;;;;6.55;4.10;;;3.90;99.90;;;;;;5001171;28;20206;-71
2021/05/20 03:10:30;;;;;;;13.45;4.00;;;4.00;99.90;;;;;;5019315;28;20530;-71
2021/05/20 03:12:56;;;;;;;9.95;4.20;;;4.00;99.90;;;;;;4999667;28;20194;-72
2021/05/20 03:15:22;;;;;;;13.30;4.57;;;4.10;99.90;;;;;;5021027;28;20250;-71
2021/05/20 03:17:48;;;;;;;10.55;4.32;;;4.20;99.90;;;;;;5018089;28;20309;-71
2021/05/20 03:20:15;;;;;;;12.40;4.88;;;4.20;99.90;;;;;;5004261;28;20669;-71
2021/05/20 03:22:40;;;;;;;9.77;4.50;;;4.30;99.90;;;;;;5021146;28;20576;-72
2021/05/20 03:25:07;;;;;;;12.55;6.20;;;4.30;99.90;;;;;;5016769;28;20248;-71
2021/05/20 03:27:32;;;;;;;11.70;5.40;;;4.50;99.90;;;;;;5016833;28;20214;-72
2021/05/20 03:29:58;;;;;;;13.30;5.30;;;4.60;99.90;;;;;;5019790;28;20194;-72
2021/05/20 03:32:24;;;;;;;21.48;7.65;;;4.70;99.90;;;;;;5022227;28;20210;-72
2021/05/20 03:34:49;;;;;;;31.85;9.13;;;4.90;99.90;;;;;;5021843;28;20197;-72
2021/05/20 03:37:15;;;;;;;16.58;7.22;;;5.10;99.90;;;;;;5021470;28;20194;-72
2021/05/20 03:39:40;;;;;;;15.18;6.53;;;5.20;99.90;;;;;;5021768;28;20246;-72
2021/05/20 03:42:06;;;;;;;19.50;7.30;;;5.30;99.90;;;;;;5004205;28;20655;-73
2021/05/20 03:44:32;;;;;;;14.45;7.20;;;5.40;99.90;;;;;;5020844;28;20228;-74
2021/05/20 03:46:58;;;;;;;16.58;7.15;;;5.50;99.90;;;;;;5020054;28;20198;-71
2021/05/20 03:49:24;;;;;;;18.70;7.78;;;5.70;99.90;;;;;;5002910;28;20218;-71
2021/05/20 03:51:50;;;;;;;23.20;7.47;;;5.70;99.90;;;;;;5021979;28;20222;-72
2021/05/20 03:54:15;;;;;;;17.95;7.00;;;5.80;99.90;;;;;;5000773;28;20659;-72
2021/05/20 03:56:41;;;;;;;24.85;7.65;;;5.90;99.90;;;;;;5020518;28;20569;-71
2021/05/20 03:59:07;;;;;;;17.83;7.20;;;6.00;99.90;;;;;;5019508;28;20206;-72
2021/05/20 04:01:33;;;;;;;21.55;7.97;;;6.10;99.90;;;;;;5020123;28;20209;-73
2021/05/20 04:03:58;;;;;;;19.77;7.95;;;6.20;99.90;;;;;;5019694;28;20216;-71
2021/05/20 04:06:24;;;;;;;19.35;7.57;;;6.40;99.90;;;;;;5022406;28;20292;-71
2021/05/20 04:08:50;;;;;;;15.88;7.25;;;6.50;99.90;;;;;;5006422;28;20221;-71
2021/05/20 04:11:15;;;;;;;13.65;6.90;;;6.60;99.90;;;;;;4998555;28;20348;-71
2021/05/20 04:13:43;;;;;;;19.10;6.55;;;6.70;99.90;;;;;;5019031;28;20202;-71
2021/05/20 04:16:13;;;;;;;17.10;6.15;;;6.90;99.90;;;;;;5019437;28;20206;-74
2021/05/20 04:18:44;;;;;;;14.95;6.82;;;7.00;99.90;;;;;;5017275;28;20279;-71
2021/05/20 04:21:10;;;;;;;12.73;6.53;;;7.10;99.90;;;;;;5019164;28;20215;-72
2021/05/20 04:23:42;;;;;;;17.52;7.28;;;7.10;99.90;;;;;;5019309;28;20198;-74
2021/05/20 04:26:07;;;;;;;13.32;7.47;;;7.30;99.90;;;;;;5019634;28;20205;-71
2021/05/20 04:28:33;;;;;;;13.77;7.10;;;7.40;99.90;;;;;;5015848;28;20198;-71
2021/05/20 04:30:59;;;;;;;19.75;6.68;;;7.50;99.90;;;;;;5019239;28;20263;-71
2021/05/20 04:33:24;;;;;;;14.07;6.22;;;7.60;99.90;;;;;;5004648;28;20238;-71
2021/05/20 04:35:50;;;;;;;13.65;6.75;;;7.60;99.90;;;;;;5024136;28;20881;-72
2021/05/20 04:38:16;;;;;;;15.02;6.05;;;7.70;99.90;;;;;;5025375;28;20553;-71
2021/05/20 04:40:41;;;;;;;15.55;6.82;;;7.70;99.90;;;;;;5019525;28;20676;-72
2021/05/20 04:43:07;;;;;;;21.08;7.30;;;7.80;99.90;;;;;;5022685;28;20194;-72
2021/05/20 04:45:37;;;;;;;18.63;7.65;;;7.80;99.90;;;;;;5024706;28;20233;-72
2021/05/20 04:48:03;;;;;;;23.02;7.97;;;7.70;99.90;;;;;;4989933;28;20735;-71
2021/05/20 04:50:30;;;;;;;18.05;7.72;;;7.70;99.90;;;;;;4999691;28;20217;-73
2021/05/20 04:52:55;;;;;;;17.50;8.43;;;7.80;99.90;;;;;;5002438;28;20256;-72
2021/05/20 04:55:21;;;;;;;24.20;8.05;;;7.90;99.90;;;;;;5020123;28;20833;-73
2021/05/20 04:57:47;;;;;;;18.90;7.47;;;8.00;99.90;;;;;;5020713;28;20204;-72
2021/05/20 05:00:13;;;;;;;15.43;7.50;;;8.10;99.90;;;;;;5021060;28;20697;-72
2021/05/20 05:02:40;;;;;;;21.45;7.35;;;8.20;99.90;;;;;;5003069;28;20212;-72
2021/05/20 05:05:06;;;;;;;13.02;6.60;;;8.40;99.90;;;;;;5020083;28;20218;-72
2021/05/20 05:07:33;;;;;;;13.35;6.20;;;8.40;99.90;;;;;;5021683;28;20281;-71
2021/05/20 05:10:02;;;;;;;16.08;6.70;;;8.40;99.90;;;;;;5012450;28;20206;-72
2021/05/20 05:12:28;;;;;;;12.05;6.43;;;8.30;99.90;;;;;;5001928;28;20230;-73
2021/05/20 05:14:54;;;;;;;11.57;5.07;;;8.40;99.90;;;;;;5020070;28;20327;-73
2021/05/20 05:17:19;;;;;;;17.73;5.85;;;8.50;99.90;;;;;;5002412;28;20997;-72
2021/05/20 05:19:45;;;;;;;10.38;4.68;;;8.70;99.90;;;;;;5018529;28;20194;-73
2021/05/20 05:22:11;;;;;;;18.77;4.93;;;8.80;99.90;;;;;;5018643;28;20690;-72
2021/05/20 05:24:36;;;;;;;13.45;4.82;;;9.00;99.90;;;;;;5016014;28;20324;-72
2021/05/20 05:27:04;;;;;;;9.63;4.38;;;9.00;99.90;;;;;;5000937;28;20289;-73
2021/05/20 05:29:31;;;;;;;17.50;5.00;;;9.00;99.90;;;;;;5017365;28;20202;-71
2021/05/20 05:31:57;;;;;;;14.20;4.60;;;9.00;99.90;;;;;;5020753;28;20707;-72
2021/05/20 05:34:23;;;;;;;10.68;4.35;;;8.90;99.90;;;;;;5017288;28;20206;-72
2021/05/20 05:36:49;;;;;;;10.93;4.60;;;8.80;99.90;;;;;;5005774;28;20209;-72
2021/05/20 05:39:15;;;;;;;12.07;4.45;;;8.70;99.90;;;;;;5002912;28;20198;-72
2021/05/20 05:41:40;;;;;;;12.27;4.72;;;8.70;99.90;;;;;;5024518;28;20714;-72
2021/05/20 05:44:07;;;;;;;11.65;4.50;;;8.80;99.90;;;;;;5024631;28;20213;-71
2021/05/20 05:46:34;;;;;;;18.60;4.80;;;8.80;99.90;;;;;;5024435;28;20453;-73
2021/05/20 05:49:10;;;;;;;16.25;5.55;;;8.90;99.90;;;;;;5024359;28;20698;-73
2021/05/20 05:51:37;;;;;;;9.45;3.42;;;8.90;99.90;;;;;;5006653;28;20232;-72
2021/05/20 05:54:04;;;;;;;14.25;3.80;;;9.10;99.90;;;;;;5006305;28;20336;-74
2021/05/20 05:56:30;;;;;;;9.85;4.40;;;9.20;99.90;;;;;;5022451;28;20212;-73
2021/05/20 05:58:56;;;;;;;12.60;3.80;;;9.30;99.90;;;;;;5024097;28;20198;-72
2021/05/20 06:01:21;;;;;;;18.25;4.50;;;9.40;99.90;;;;;;5023430;28;20580;-72
2021/05/20 06:03:47;;;;;;;8.57;3.85;;;9.50;99.90;;;;;;5024372;28;20194;-72
2021/05/20 06:06:13;;;;;;;7.18;3.85;;;9.70;99.90;;;;;;5006483;28;20214;-73
2021/05/20 06:08:39;;;;;;;13.93;4.07;;;9.70;99.90;;;;;;5020580;28;20195;-72
2021/05/20 06:11:05;;;;;;;10.80;3.90;;;9.60;99.90;;;;;;5006246;28;20547;-72
2021/05/20 06:13:30;;;;;;;16.52;4.63;;;9.60;99.90;;;;;;5023231;28;20206;-72
2021/05/20 06:15:56;;;;;;;11.88;4.28;;;9.70;99.90;;;;;;5020345;28;20232;-72
2021/05/20 06:18:21;;;;;;;11.35;4.05;;;9.60;99.90;;;;;;5021796;28;20541;-74
2021/05/20 06:20:49;;;;;;;15.38;4.40;;;9.70;99.90;;;;;;5005831;28;20194;-72
2021/05/20 06:23:14;;;;;;;8.35;3.72;;;9.80;99.90;;;;;;5023544;28;20194;-72
2021/05/20 06:25:41;;;;;;;14.30;4.15;;;9.80;99.90;;;;;;5019101;28;20291;-72
2021/05/20 06:28:09;;;;;;;10.98;3.83;;;9.80;99.90;;;;;;5023947;28;20202;-72
2021/05/20 06:30:35;;;;;;;13.25;3.75;;;10.00;99.90;;;;;;5004592;28;20573;-72
2021/05/20 06:33:00;;;;;;;8.75;3.85;;;10.10;99.90;;;;;;5024658;28;20665;-72
2021/05/20 06:35:26;;;;;;;9.02;3.67;;;10.30;99.90;;;;;;5022149;28;20624;-72
2021/05/20 06:37:52;;;;;;;12.80;3.95;;;10.30;99.90;;;;;;5023914;28;20194;-73
2021/05/20 06:40:18;;;;;;;10.30;3.45;;;10.20;99.90;;;;;;5023213;28;20269;-72
2021/05/20 06:42:43;;;;;;;9.10;3.38;;;10.30;99.90;;;;;;5020648;28;20684;-73
2021/05/20 06:45:10;;;;;;;7.25;3.42;;;10.40;99.90;;;;;;5021387;28;20592;-72
2021/05/20 06:47:35;;;;;;;7.28;3.17;;;10.50;99.90;;;;;;5020160;28;20209;-74
2021/05/20 06:50:02;;;;;;;8.55;3.78;;;10.70;99.90;;;;;;5023246;28;20256;-73
2021/05/20 06:52:27;;;;;;;10.07;3.42;;;10.80;99.90;;;;;;5005197;28;20250;-74
2021/05/20 06:54:53;;;;;;;8.93;3.33;;;10.90;99.90;;;;;;5005007;28;20279;-72
2021/05/20 06:57:28;;;;;;;8.23;3.30;;;10.90;99.90;;;;;;5023034;28;20214;-72
2021/05/20 07:00:02;;;;;;;7.07;3.13;;;11.00;99.90;;;;;;5004507;28;20194;-72
2021/05/20 07:02:29;;;;;;;5.88;3.22;;;11.40;99.90;;;;;;5022111;28;20194;-72
2021/05/20 07:04:56;;;;;;;8.40;3.20;;;11.50;99.90;;;;;;5002662;28;20237;-72
2021/05/20 07:07:22;;;;;;;12.30;3.75;;;11.30;99.90;;;;;;5022684;28;20202;-73
2021/05/20 07:09:48;;;;;;;8.30;3.13;;;11.10;99.90;;;;;;5020534;28;20210;-72
2021/05/20 07:12:16;;;;;;;9.68;3.38;;;11.00;99.90;;;;;;5018438;28;20202;-73
2021/05/20 07:14:43;;;;;;;13.35;3.55;;;10.90;99.90;;;;;;5014331;28;20206;-74
2021/05/20 07:17:11;;;;;;;7.43;3.28;;;11.00;99.90;;;;;;5000409;28;20214;-75
2021/05/20 07:19:37;;;;;;;11.13;3.90;;;11.20;99.90;;;;;;5017145;28;20198;-73
2021/05/20 07:22:04;;;;;;;7.55;3.55;;;11.30;99.90;;;;;;5020802;28;20197;-72
2021/05/20 07:24:30;;;;;;;9.43;3.58;;;11.30;99.90;;;;;;5013343;28;20775;-73
2021/05/20 07:26:56;;;;;;;14.95;3.53;;;11.10;99.90;;;;;;5002851;28;20209;-72
2021/05/20 07:29:22;;;;;;;10.02;3.72;;;11.10;99.90;;;;;;5022454;28;20198;-73
2021/05/20 07:31:48;;;;;;;7.57;3.25;;;11.20;99.90;;;;;;5002801;28;20717;-73
2021/05/20 07:34:14;;;;;;;9.52;3.47;;;11.40;99.90;;;;;;4997665;28;20206;-73
2021/05/20 07:36:40;;;;;;;8.32;2.97;;;11.40;99.90;;;;;;5003258;28;20272;-73
2021/05/20 07:39:06;;;;;;;6.90;3.42;;;11.50;99.90;;;;;;5016390;28;20213;-73
2021/05/20 07:41:33;;;;;;;9.50;3.50;;;11.60;99.90;;;;;;4997343;28;20226;-73
2021/05/20 07:44:02;;;;;;;7.32;3.33;;;11.70;99.90;;;;;;5002096;28;20256;-72
2021/05/20 07:46:28;;;;;;;5.50;3.28;;;11.60;99.90;;;;;;5004366;28;20206;-72
2021/05/20 07:48:54;;;;;;;8.73;3.22;;;11.60;99.90;;;;;;5022239;28;20251;-72
2021/05/20 07:51:19;;;;;;;9.27;3.15;;;11.70;99.90;;;;;;5004374;28;20237;-73
2021/05/20 07:53:45;;;;;;;7.28;3.00;;;11.90;99.90;;;;;;5004597;28;20217;-73
2021/05/20 07:56:13;;;;;;;5.80;3.00;;;11.90;99.90;;;;;;5024825;28;20229;-72
2021/05/20 07:58:39;;;;;;;8.40;3.50;;;12.00;99.90;;;;;;5023999;28;20722;-73
2021/05/20 08:01:05;;;;;;;7.47;3.25;;;12.20;99.90;;;;;;5026005;28;20194;-73
2021/05/20 08:06:23;;;;;;;6.63;2.83;;;13.30;99.90;;;;;;5025619;28;20651;-73
2021/05/20 08:11:15;;;;;;;4.65;3.03;;;13.40;99.90;;;;;;5025067;28;20515;-73
2021/05/20 08:13:41;;;;;;;6.32;2.70;;;13.30;99.90;;;;;;5020275;28;20553;-73
2021/05/20 08:16:07;;;;;;;7.85;3.25;;;13.10;99.90;;;;;;5003800;28;20205;-73
2021/05/20 08:18:33;;;;;;;10.95;3.05;;;13.20;99.90;;;;;;5021757;28;20190;-73
2021/05/20 08:21:00;;;;;;;9.77;3.25;;;13.10;99.90;;;;;;5016732;28;20209;-74
2021/05/20 08:23:25;;;;;;;9.25;3.33;;;13.00;99.90;;;;;;5003044;28;20222;-73
2021/05/20 08:25:54;;;;;;;8.95;2.75;;;13.40;99.90;;;;;;5003091;28;20198;-72
2021/05/20 08:28:20;;;;;;;6.10;2.88;;;13.80;99.90;;;;;;5021780;28;20194;-72
2021/05/20 08:30:46;;;;;;;10.23;3.22;;;14.40;99.90;;;;;;5020707;28;20206;-74
2021/05/20 08:33:12;;;;;;;4.25;2.80;;;15.20;99.90;;;;;;5019873;28;20212;-73
2021/05/20 08:35:38;;;;;;;11.15;2.83;;;15.20;99.90;;;;;;5004051;28;20574;-72
2021/05/20 08:38:05;;;;;;;6.03;2.90;;;14.70;99.90;;;;;;5021995;28;20673;-72
2021/05/20 08:40:31;;;;;;;6.20;3.08;;;14.70;99.90;;;;;;5021041;28;20198;-73
2021/05/20 08:42:57;;;;;;;4.90;2.65;;;14.70;99.90;;;;;;5018378;28;20202;-74
2021/05/20 08:45:28;;;;;;;5.97;2.58;;;15.10;99.90;;;;;;5021805;28;20202;-73
2021/05/20 08:47:55;;;;;;;7.38;2.92;;;14.80;99.90;;;;;;5021492;28;20240;-74
2021/05/20 08:50:23;;;;;;;9.20;2.65;;;14.70;99.90;;;;;;5021497;28;20619;-73
2021/05/20 08:52:50;;;;;;;11.55;3.90;;;14.80;99.90;;;;;;5019791;28;20205;-73
2021/05/20 08:55:24;;;;;;;6.70;2.90;;;14.70;99.90;;;;;;5019695;28;20505;-73
2021/05/20 08:57:50;;;;;;;6.88;2.83;;;14.30;99.90;;;;;;5020142;28;20790;-73
2021/05/20 09:00:19;;;;;;;5.57;2.67;;;14.20;99.90;;;;;;5019922;28;20194;-73
2021/05/20 09:02:44;;;;;;;8.18;3.03;;;14.00;99.90;;;;;;5020807;28;20194;-73
2021/05/20 09:05:18;;;;;;;6.13;2.97;;;13.90;99.90;;;;;;5020466;28;20573;-73
2021/05/20 09:07:51;;;;;;;9.52;3.35;;;13.70;99.90;;;;;;5000032;28;20209;-73
2021/05/20 09:10:37;;;;;;;9.48;2.80;;;13.80;99.90;;;;;;5013877;28;20583;-73
2021/05/20 09:13:05;;;;;;;5.00;2.88;;;14.50;99.90;;;;;;5013684;28;20201;-73
2021/05/20 09:15:39;;;;;;;7.72;2.72;;;15.30;99.90;;;;;;5002030;28;20711;-73
2021/05/20 09:18:21;;;;;;;7.72;2.90;;;16.00;99.90;;;;;;5014326;28;20587;-74
2021/05/20 09:20:51;;;;;;;8.68;3.00;;;16.10;99.90;;;;;;5000501;28;20213;-75
2021/05/20 09:23:18;;;;;;;6.35;2.70;;;16.00;99.90;;;;;;5019722;28;20210;-73
2021/05/20 09:25:46;;;;;;;13.93;3.03;;;16.40;99.90;;;;;;5015674;28;20202;-74
2021/05/20 09:28:13;;;;;;;6.60;2.80;;;16.50;99.90;;;;;;5019955;28;20265;-73
2021/05/20 09:30:44;;;;;;;7.93;3.25;;;16.60;99.90;;;;;;5014476;28;20210;-74
2021/05/20 09:33:17;;;;;;;14.18;2.90;;;17.10;99.90;;;;;;5017196;28;20206;-73
2021/05/20 09:35:49;;;;;;;6.65;3.30;;;17.70;99.90;;;;;;4997051;28;20750;-74
2021/05/20 09:38:26;;;;;;;7.90;3.80;;;18.00;99.90;;;;;;5004729;28;20324;-75
2021/05/20 09:40:56;;;;;;;12.77;4.10;;;17.70;99.90;;;;;;4999888;28;20307;-74
2021/05/20 09:43:25;;;;;;;7.85;3.30;;;17.80;99.90;;;;;;5011343;28;20190;-74
2021/05/20 09:45:53;;;;;;;9.57;3.80;;;17.60;99.90;;;;;;5013340;28;20194;-73
2021/05/20 09:48:25;;;;;;;9.20;4.15;;;17.80;99.90;;;;;;5007302;28;20202;-73
2021/05/20 09:50:56;;;;;;;8.60;3.85;;;17.90;99.90;;;;;;5006694;28;20202;-75
2021/05/20 09:53:23;;;;;;;9.18;4.25;;;18.30;99.90;;;;;;5007713;28;20281;-74
2021/05/20 09:55:55;;;;;;;7.50;3.95;;;18.70;99.90;;;;;;5005869;28;20218;-73
2021/05/20 09:58:23;;;;;;;9.10;4.05;;;18.90;99.90;;;;;;5006896;28;20210;-73
2021/05/20 10:00:50;;;;;;;9.73;3.85;;;18.90;99.90;;;;;;5017091;28;20198;-75
2021/05/20 10:03:18;;;;;;;8.73;4.32;;;18.70;99.90;;;;;;5020395;28;20194;-73
2021/05/20 10:05:46;;;;;;;7.95;3.92;;;19.00;99.90;;;;;;5011162;28;20391;-73
2021/05/20 10:08:15;;;;;;;7.65;4.07;;;18.70;99.90;;;;;;5017600;28;20777;-73
2021/05/20 10:10:43;;;;;;;6.57;4.18;;;18.20;99.90;;;;;;5010229;28;20866;-75
2021/05/20 10:13:14;;;;;;;9.23;4.10;;;17.80;99.90;;;;;;5010675;28;20368;-73
2021/05/20 10:15:40;;;;;;;10.77;4.25;;;18.30;99.90;;;;;;4998095;28;20198;-74
2021/05/20 10:18:11;;;;;;;11.68;4.25;;;18.70;99.90;;;;;;5018091;28;20572;-75
2021/05/20 10:20:39;;;;;;;8.40;4.40;;;19.20;99.90;;;;;;5001112;28;20281;-74
2021/05/20 10:23:12;;;;;;;14.30;5.07;;;19.50;99.90;;;;;;5020460;28;20202;-73
2021/05/20 10:25:39;;;;;;;7.60;4.90;;;19.10;99.90;;;;;;5015726;28;20740;-73
2021/05/20 10:28:07;;;;;;;8.90;4.88;;;19.00;99.90;;;;;;5023436;28;20205;-74
2021/05/20 10:30:34;;;;;;;8.88;4.90;;;18.60;99.90;;;;;;5004211;28;20202;-73
2021/05/20 10:32:59;;;;;;;8.70;4.38;;;18.40;99.90;;;;;;5020288;28;20277;-72
2021/05/20 10:35:51;;;;;;;11.57;4.85;;;18.70;99.90;;;;;;5021904;28;20201;-74
2021/05/20 10:38:30;;;;;;;11.10;4.60;;;18.90;99.90;;;;;;5012472;28;20755;-75
2021/05/20 10:41:26;;;;;;;7.25;4.30;;;19.00;99.90;;;;;;4998329;28;20195;-74
2021/05/20 10:44:12;;;;;;;8.57;4.32;;;19.20;99.90;;;;;;5003034;28;20609;-75
2021/05/20 10:46:56;;;;;;;8.65;3.70;;;19.10;99.50;;;;;;5003835;28;20218;-74
2021/05/20 10:49:49;;;;;;;5.72;3.25;;;19.30;99.70;;;;;;5012904;28;20210;-73
2021/05/20 10:52:40;;;;;;;7.32;3.38;;;19.20;99.00;;;;;;5011634;28;20572;-73
2021/05/20 10:55:08;;;;;;;6.50;3.33;;;19.50;98.40;;;;;;5011426;28;20268;-73
2021/05/20 10:57:49;;;;;;;6.60;3.50;;;19.00;98.50;;;;;;4996494;28;20198;-74
2021/05/20 11:00:40;;;;;;;5.10;3.10;;;19.50;98.40;;;;;;5010675;28;20223;-75
2021/05/20 11:03:10;;;;;;;11.07;3.47;;;20.40;99.90;;;;;;5015057;28;20636;-75
2021/05/20 11:05:42;;;;;;;6.45;3.00;;;21.10;93.40;;;;;;5014718;28;21158;-75
2021/05/20 11:08:34;;;;;;;4.68;2.60;;;20.70;95.00;;;;;;5014895;28;20202;-75
2021/05/20 11:11:00;;;;;;;5.15;2.80;;;20.90;92.50;;;;;;4980298;28;20203;-75
2021/05/20 11:13:39;;;;;;;8.25;2.70;;;20.30;92.70;;;;;;4994466;28;20205;-75
2021/05/20 11:16:12;;;;;;;8.23;2.88;;;20.60;94.30;;;;;;5014660;28;20701;-74
2021/05/20 11:18:38;;;;;;;6.63;2.80;;;21.30;93.10;;;;;;4996139;28;20299;-75
2021/05/20 11:21:04;;;;;;;7.30;2.65;;;22.00;90.90;;;;;;5011001;28;20266;-74
2021/05/20 11:23:31;;;;;;;6.50;2.80;;;22.00;88.30;;;;;;5013371;28;20194;-75
2021/05/20 11:26:18;;;;;;;6.72;2.75;;;21.40;90.90;;;;;;5011564;28;20706;-76
2021/05/20 11:28:49;;;;;;;7.15;3.10;;;21.50;93.00;;;;;;5016118;28;20285;-76
2021/05/20 11:31:16;;;;;;;5.63;2.97;;;21.50;88.90;;;;;;5019654;28;20301;-75
2021/05/20 11:33:54;;;;;;;6.30;2.80;;;21.60;94.20;;;;;;5002350;28;20190;-76
2021/05/20 11:36:20;;;;;;;8.35;3.03;;;22.20;88.60;;;;;;5004156;28;20210;-76
2021/05/20 11:39:01;;;;;;;5.43;2.78;;;22.90;90.90;;;;;;5003714;28;20316;-76
2021/05/20 11:41:27;;;;;;;5.20;2.38;;;22.60;90.10;;;;;;5020234;28;20206;-76
2021/05/20 11:44:10;;;;;;;5.72;2.47;;;22.60;85.80;;;;;;5014721;28;20702;-76
2021/05/20 11:46:38;;;;;;;4.13;2.40;;;22.80;85.30;;;;;;5021608;28;20217;-76
2021/05/20 11:49:18;;;;;;;5.18;2.50;;;23.30;88.30;;;;;;5005886;28;20355;-76
2021/05/20 11:51:51;;;;;;;4.57;2.38;;;23.70;89.00;;;;;;5024168;28;20205;-76
2021/05/20 11:54:19;;;;;;;5.57;2.50;;;23.90;84.60;;;;;;5022070;28;20572;-76
2021/05/20 11:56:51;;;;;;;4.60;2.30;;;23.50;78.70;;;;;;5005606;28;20233;-76
2021/05/20 11:59:43;;;;;;;7.88;2.20;;;22.70;81.60;;;;;;5022642;28;20201;-76
2021/05/20 12:02:10;;;;;;;4.47;2.30;;;22.50;81.70;;;;;;5016346;28;20220;-76
2021/05/20 12:04:37;;;;;;;6.38;2.15;;;22.20;86.60;;;;;;5022549;28;20305;-76
2021/05/20 12:07:04;;;;;;;4.35;2.17;;;22.50;84.60;;;;;;5000367;28;20206;-76
2021/05/20 12:09:30;;;;;;;5.18;2.20;;;22.50;88.20;;;;;;4999966;28;20264;-76
2021/05/20 12:11:55;;;;;;;6.63;2.30;;;23.00;81.10;;;;;;5019210;28;20755;-76
2021/05/20 12:14:21;;;;;;;7.57;2.30;;;22.80;82.50;;;;;;5014868;28;20210;-75
2021/05/20 12:17:17;;;;;;;5.18;2.13;;;23.00;85.20;;;;;;5014437;28;20291;-75
2021/05/20 12:19:54;;;;;;;5.45;1.73;;;23.30;80.30;;;;;;5017228;28;20587;-75
2021/05/20 12:22:28;;;;;;;4.05;2.03;;;22.90;80.40;;;;;;5001215;28;20197;-76
2021/05/20 12:25:00;;;;;;;3.70;1.83;;;22.90;86.00;;;;;;4998010;28;20201;-76
2021/05/20 12:27:42;;;;;;;5.80;2.00;;;22.70;80.60;;;;;;5019386;28;20230;-74
2021/05/20 12:30:10;;;;;;;3.75;1.88;;;22.20;82.10;;;;;;5002491;28;20584;-73
2021/05/20 12:32:39;;;;;;;5.80;1.90;;;22.10;84.30;;;;;;5019954;28;20662;-74
2021/05/20 12:35:24;;;;;;;4.70;2.00;;;21.90;85.20;;;;;;5019383;28;20313;-73
2021/05/20 12:38:09;;;;;;;4.70;2.05;;;21.70;86.40;;;;;;5018049;28;20202;-73
2021/05/20 12:40:50;;;;;;;8.70;1.98;;;21.90;84.30;;;;;;5000872;28;20307;-76
2021/05/20 12:43:19;;;;;;;4.18;2.20;;;22.20;85.30;;;;;;5020524;28;20206;-73
2021/05/20 12:45:45;;;;;;;4.75;2.10;;;21.90;85.20;;;;;;5019991;28;20194;-75
2021/05/20 12:48:22;;;;;;;5.30;2.20;;;22.00;87.60;;;;;;5020523;28;20213;-74
2021/05/20 12:50:48;;;;;;;4.18;2.17;;;22.30;89.10;;;;;;5021174;28;20200;-74
2021/05/20 12:53:35;;;;;;;5.07;2.15;;;22.10;82.10;;;;;;5020787;28;20487;-76
2021/05/20 12:56:04;;;;;;;5.05;2.08;;;22.00;86.10;;;;;;5001331;28;20237;-74
2021/05/20 12:59:04;;;;;;;7.03;2.03;;;22.60;86.60;;;;;;5018667;28;20198;-74
2021/05/20 13:01:40;;;;;;;5.85;2.10;;;23.00;81.30;;;;;;5008700;28;20300;-74